Time;durP1;ratioP1;P1;durP2;ratioP2;P2;SDS_P1;SDS_P2;PMS_P1;PMS_P2;Temp;Humidity;BMP_temperature;BMP_pressure;BME280_temperature;BME280_humidity;BME280_pressure;Samples;Min_cycle;Max_cycle;Signal;HPM_P1;HPM_P2
2022/08/05 00:01:19;;;;;;;0.75;0.20;;;;;;;16.28;43.84;100732.63;5045722;28;20020;-72
2022/08/05 00:03:45;;;;;;;1.17;0.20;;;;;;;16.19;43.50;100725.03;5078245;28;20033;-75
2022/08/05 00:06:11;;;;;;;2.15;0.20;;;;;;;16.08;43.47;100722.69;5045098;28;20036;-75
2022/08/05 00:08:38;;;;;;;0.65;0.30;;;;;;;15.95;43.73;100729.78;5048717;28;20052;-74
2022/08/05 00:11:07;;;;;;;3.10;0.43;;;;;;;15.84;43.85;100724.38;5057434;28;20052;-75
2022/08/05 00:13:35;;;;;;;0.57;0.20;;;;;;;15.74;44.47;100723.63;5054474;28;20025;-75
2022/08/05 00:16:01;;;;;;;0.82;0.28;;;;;;;15.70;43.80;100724.22;5055609;28;20081;-76
2022/08/05 00:18:27;;;;;;;0.95;0.30;;;;;;;15.62;44.51;100715.78;5075952;28;20020;-75
2022/08/05 00:20:52;;;;;;;0.52;0.20;;;;;;;15.63;44.34;100728.44;5056867;28;20174;-74
2022/08/05 00:23:18;;;;;;;2.25;0.35;;;;;;;15.58;44.56;100725.75;5074810;28;20036;-74
2022/08/05 00:25:44;;;;;;;0.70;0.30;;;;;;;15.47;44.67;100731.38;5057344;28;20036;-75
2022/08/05 00:28:09;;;;;;;0.88;0.40;;;;;;;15.39;44.64;100723.75;5075518;28;20028;-73
2022/08/05 00:30:35;;;;;;;1.75;0.43;;;;;;;15.40;44.61;100725.38;5052804;28;20100;-74
2022/08/05 00:33:00;;;;;;;0.98;0.40;;;;;;;15.39;44.72;100726.50;5069959;28;20367;-73
2022/08/05 00:35:26;;;;;;;0.65;0.25;;;;;;;15.40;44.54;100732.81;5074212;28;20023;-73
2022/08/05 00:37:51;;;;;;;2.15;0.28;;;;;;;15.56;44.76;100727.97;5075394;28;20021;-73
2022/08/05 00:40:18;;;;;;;0.73;0.30;;;;;;;15.53;44.28;100732.94;5063046;28;20086;-73
2022/08/05 00:42:43;;;;;;;1.73;0.55;;;;;;;15.59;44.68;100738.41;5051165;28;20029;-74
2022/08/05 00:45:09;;;;;;;5.95;0.40;;;;;;;15.53;44.40;100734.88;5039891;28;20029;-75
2022/08/05 00:47:35;;;;;;;1.38;0.40;;;;;;;15.51;44.47;100743.44;5074660;28;20032;-75
2022/08/05 00:50:00;;;;;;;1.30;0.40;;;;;;;15.48;44.84;100755.06;5036172;28;20028;-74
2022/08/05 00:52:26;;;;;;;0.90;0.47;;;;;;;15.45;44.91;100754.81;5071981;28;20032;-75
2022/08/05 00:54:51;;;;;;;3.15;0.30;;;;;;;15.53;44.92;100745.91;5074643;28;20024;-75
2022/08/05 00:57:17;;;;;;;1.77;0.30;;;;;;;15.49;44.94;100745.69;5039299;28;20027;-75
2022/08/05 00:59:43;;;;;;;1.48;0.30;;;;;;;15.49;44.97;100750.34;5074548;28;20044;-74
2022/08/05 01:02:08;;;;;;;1.45;0.40;;;;;;;15.41;45.01;100753.75;5058737;28;20486;-74
2022/08/05 01:04:35;;;;;;;0.20;0.20;;;;;;;15.44;45.45;100751.25;5077771;28;20045;-74
2022/08/05 01:07:01;;;;;;;0.47;0.30;;;;;;;15.48;46.22;100757.81;5057359;28;20485;-74
2022/08/05 01:09:26;;;;;;;1.55;0.40;;;;;;;15.45;45.65;100750.13;5041722;28;20032;-73
2022/08/05 01:11:56;;;;;;;1.20;0.32;;;;;;;15.39;45.20;100755.97;5055529;28;20036;-73
2022/08/05 01:14:40;;;;;;;2.65;0.43;;;;;;;15.21;45.41;100754.78;5071139;28;20070;-74
2022/08/05 01:17:10;;;;;;;0.60;0.25;;;;;;;15.09;46.27;100755.16;5077247;28;20023;-73
2022/08/05 01:19:52;;;;;;;1.20;0.40;;;;;;;14.99;46.24;100753.28;5079558;28;20024;-74
2022/08/05 01:22:29;;;;;;;1.35;0.40;;;;;;;14.89;46.58;100754.19;5049023;28;20031;-74
2022/08/05 01:25:22;;;;;;;1.45;0.40;;;;;;;14.86;46.61;100756.69;5058507;28;20101;-74
2022/08/05 01:28:17;;;;;;;0.95;0.30;;;;;;;14.79;46.82;100760.59;5067838;28;20095;-74
2022/08/05 01:30:55;;;;;;;1.83;0.35;;;;;;;14.79;46.85;100766.13;5058066;28;20017;-74
2022/08/05 01:33:24;;;;;;;2.83;0.50;;;;;;;14.85;46.90;100766.91;5076887;28;20554;-74
2022/08/05 01:35:54;;;;;;;1.27;0.30;;;;;;;14.86;46.67;100775.97;5065938;28;20016;-73
2022/08/05 01:38:22;;;;;;;0.73;0.40;;;;;;;14.78;46.92;100769.97;5067449;28;20112;-73
2022/08/05 01:40:48;;;;;;;0.75;0.47;;;;;;;14.72;47.17;100762.84;5069767;28;20028;-74
2022/08/05 01:43:15;;;;;;;2.17;0.55;;;;;;;14.70;47.43;100773.31;5063228;28;20032;-75
2022/08/05 01:45:41;;;;;;;1.30;0.30;;;;;;;14.61;47.57;100777.75;5055537;28;20102;-74
2022/08/05 01:48:08;;;;;;;0.95;0.32;;;;;;;14.66;47.75;100777.78;5074704;28;20127;-75
2022/08/05 01:50:39;;;;;;;0.57;0.20;;;;;;;14.63;47.47;100781.06;5069598;28;20024;-75
2022/08/05 01:53:08;;;;;;;0.75;0.40;;;;;;;14.54;48.15;100774.50;5070061;28;20021;-74
2022/08/05 01:55:36;;;;;;;2.20;0.40;;;;;;;14.52;48.06;100774.78;5060380;28;20111;-74
2022/08/05 01:58:04;;;;;;;0.52;0.40;;;;;;;14.43;48.31;100785.56;5072223;28;20110;-74
2022/08/05 02:00:30;;;;;;;2.10;0.35;;;;;;;14.36;48.26;100790.53;5072744;28;20060;-73
2022/08/05 02:03:06;;;;;;;1.60;0.35;;;;;;;14.34;49.34;100784.50;5062669;28;20466;-73
2022/08/05 02:05:35;;;;;;;3.72;0.40;;;;;;;14.43;49.48;100782.81;5073835;28;20413;-73
2022/08/05 02:08:01;;;;;;;0.32;0.20;;;;;;;14.36;48.78;100785.03;5073763;28;20370;-73
2022/08/05 02:10:34;;;;;;;0.63;0.40;;;;;;;14.28;49.05;100793.88;5073927;28;20028;-74
2022/08/05 02:13:07;;;;;;;2.35;0.32;;;;;;;14.20;49.63;100792.53;5050311;28;20024;-73
2022/08/05 02:15:43;;;;;;;0.50;0.38;;;;;;;14.05;49.59;100785.19;5063801;28;20047;-73
2022/08/05 02:18:23;;;;;;;1.50;0.82;;;;;;;13.95;50.26;100785.22;5076215;28;20504;-74
2022/08/05 02:20:55;;;;;;;1.55;0.30;;;;;;;14.00;50.89;100796.19;5056329;28;20160;-75
2022/08/05 02:23:25;;;;;;;0.70;0.40;;;;;;;14.05;50.77;100790.69;5078546;28;20047;-74
2022/08/05 02:25:51;;;;;;;0.70;0.50;;;;;;;14.01;50.92;100789.59;5078494;28;20035;-74
2022/08/05 02:28:26;;;;;;;1.90;0.43;;;;;;;14.02;51.33;100791.25;5035918;28;20796;-74
2022/08/05 02:30:57;;;;;;;1.25;0.40;;;;;;;13.96;51.66;100786.88;5057590;28;20017;-75
2022/08/05 02:33:24;;;;;;;0.57;0.40;;;;;;;13.87;51.75;100794.88;5064300;28;20051;-73
2022/08/05 02:35:54;;;;;;;0.50;0.35;;;;;;;13.85;51.58;100801.75;5040003;28;20025;-74
2022/08/05 02:38:20;;;;;;;0.85;0.50;;;;;;;13.71;51.89;100796.81;5050896;28;20020;-74
2022/08/05 02:40:46;;;;;;;1.23;0.60;;;;;;;13.63;52.32;100799.31;5022403;28;20032;-73
2022/08/05 02:43:12;;;;;;;0.93;0.30;;;;;;;13.59;52.92;100794.38;5049196;28;20020;-74
2022/08/05 02:45:40;;;;;;;0.85;0.47;;;;;;;13.58;52.48;100786.38;5072205;28;20029;-75
2022/08/05 02:48:07;;;;;;;2.47;0.50;;;;;;;13.56;53.45;100791.34;5073370;28;20024;-74
2022/08/05 02:50:35;;;;;;;1.45;0.50;;;;;;;13.65;53.19;100800.66;5044119;28;20380;-74
2022/08/05 02:53:02;;;;;;;0.25;0.25;;;;;;;13.67;53.20;100806.72;5070412;28;20049;-74
2022/08/05 02:55:30;;;;;;;0.60;0.40;;;;;;;13.78;52.83;100802.84;5083300;28;20024;-75
2022/08/05 02:57:57;;;;;;;2.05;0.40;;;;;;;13.77;53.66;100805.88;5058822;28;20020;-74
2022/08/05 03:00:23;;;;;;;1.75;0.32;;;;;;;13.76;53.60;100805.03;5059696;28;20055;-74
2022/08/05 03:02:50;;;;;;;3.92;0.60;;;;;;;13.70;54.09;100808.91;5075653;28;20040;-74
2022/08/05 03:05:17;;;;;;;1.17;0.50;;;;;;;13.69;53.67;100809.19;5064663;28;20126;-74
2022/08/05 03:07:43;;;;;;;1.38;0.63;;;;;;;13.67;54.63;100812.22;5058630;28;20044;-74
2022/08/05 03:10:09;;;;;;;2.35;0.68;;;;;;;13.69;54.54;100815.50;5067246;28;20086;-73
2022/08/05 03:12:39;;;;;;;2.15;0.60;;;;;;;13.68;54.34;100811.13;5042847;28;20036;-73
2022/08/05 03:15:07;;;;;;;1.20;0.40;;;;;;;13.59;54.43;100821.00;5056747;28;20021;-73
2022/08/05 03:17:32;;;;;;;3.45;0.70;;;;;;;13.49;54.46;100826.53;5073639;28;20391;-74
2022/08/05 03:19:58;;;;;;;0.88;0.40;;;;;;;13.47;54.69;100824.03;5070478;28;20028;-73
2022/08/05 03:22:23;;;;;;;0.85;0.40;;;;;;;13.36;55.01;100826.00;5072510;28;20028;-73
2022/08/05 03:24:50;;;;;;;3.35;0.40;;;;;;;13.27;56.04;100824.84;5062795;28;20052;-73
2022/08/05 03:27:16;;;;;;;1.20;0.40;;;;;;;13.23;56.04;100830.06;5043055;28;20028;-73
2022/08/05 03:29:42;;;;;;;3.08;0.70;;;;;;;13.15;56.17;100838.03;5046362;28;20085;-73
2022/08/05 03:32:08;;;;;;;1.85;0.70;;;;;;;12.98;56.38;100828.13;5046450;28;20051;-73
2022/08/05 03:34:34;;;;;;;1.77;0.70;;;;;;;12.86;56.99;100835.78;5067394;28;20039;-73
2022/08/05 03:37:01;;;;;;;1.02;0.50;;;;;;;12.77;57.40;100831.94;5039627;28;20028;-73
2022/08/05 03:39:27;;;;;;;1.30;0.52;;;;;;;12.71;57.35;100836.56;5061789;28;20104;-73
2022/08/05 03:41:53;;;;;;;1.27;0.60;;;;;;;12.65;58.04;100841.22;5077834;28;20340;-74
2022/08/05 03:44:19;;;;;;;0.85;0.40;;;;;;;12.73;58.02;100843.44;5044161;28;20119;-73
2022/08/05 03:46:44;;;;;;;1.13;0.60;;;;;;;12.80;57.93;100850.59;5043401;28;20059;-73
2022/08/05 03:49:10;;;;;;;2.28;0.60;;;;;;;12.75;58.00;100846.72;5059861;28;20028;-73
2022/08/05 03:51:49;;;;;;;3.35;0.68;;;;;;;12.77;58.22;100856.63;5049936;28;20458;-74
2022/08/05 03:54:37;;;;;;;3.65;0.63;;;;;;;12.74;58.38;100850.56;5063842;28;20466;-74
2022/08/05 03:57:04;;;;;;;1.02;0.50;;;;;;;12.69;58.57;100861.53;5066950;28;20093;-73
2022/08/05 03:59:39;;;;;;;2.97;0.52;;;;;;;12.61;58.50;100859.31;5076875;28;20145;-71
2022/08/05 04:02:06;;;;;;;1.42;0.45;;;;;;;12.52;58.85;100858.19;5057066;28;20530;-72
2022/08/05 04:04:33;;;;;;;2.95;0.70;;;;;;;12.43;59.25;100854.31;5057697;28;20028;-72
2022/08/05 04:07:00;;;;;;;2.10;0.50;;;;;;;12.36;59.53;100849.88;5034788;28;20035;-73
2022/08/05 04:09:27;;;;;;;1.55;0.70;;;;;;;12.30;59.31;100859.19;5056284;28;20390;-73
2022/08/05 04:11:54;;;;;;;1.48;0.60;;;;;;;12.24;59.87;100868.47;5060935;28;20035;-71
2022/08/05 04:14:20;;;;;;;1.42;0.52;;;;;;;12.15;60.40;100861.84;5074206;28;20024;-73
2022/08/05 04:16:46;;;;;;;1.25;0.50;;;;;;;12.10;59.99;100859.91;5061454;28;20055;-73
2022/08/05 04:19:12;;;;;;;0.73;0.30;;;;;;;12.12;59.82;100865.13;5045997;28;20032;-73
2022/08/05 04:21:37;;;;;;;1.27;0.43;;;;;;;12.11;60.31;100868.97;5065585;28;20028;-73
2022/08/05 04:24:04;;;;;;;0.57;0.30;;;;;;;12.01;60.24;100870.53;5080208;28;20028;-73
2022/08/05 04:26:29;;;;;;;1.90;0.70;;;;;;;12.04;60.63;100874.66;5055161;28;20025;-72
2022/08/05 04:28:55;;;;;;;4.18;0.68;;;;;;;11.91;61.17;100872.38;5042503;28;20025;-73
2022/08/05 04:31:21;;;;;;;1.67;0.52;;;;;;;11.77;61.31;100869.25;5080449;28;20032;-73
2022/08/05 04:33:47;;;;;;;0.82;0.45;;;;;;;11.79;61.59;100880.78;5056477;28;20555;-72
2022/08/05 04:36:14;;;;;;;0.95;0.40;;;;;;;11.72;61.35;100880.19;5062437;28;20023;-74
2022/08/05 04:38:41;;;;;;;0.43;0.38;;;;;;;11.59;61.56;100874.03;5079913;28;20023;-73
2022/08/05 04:41:07;;;;;;;1.20;0.60;;;;;;;11.57;62.25;100884.44;5044915;28;20033;-74
2022/08/05 04:43:32;;;;;;;2.25;0.60;;;;;;;11.52;62.14;100884.38;5051108;28;20037;-73
2022/08/05 04:45:58;;;;;;;0.75;0.30;;;;;;;11.47;61.97;100878.88;5076421;28;20082;-74
2022/08/05 04:48:24;;;;;;;1.23;0.52;;;;;;;11.41;62.73;100882.66;5038710;28;20035;-74
2022/08/05 04:50:49;;;;;;;1.70;0.47;;;;;;;11.35;62.40;100885.34;5073363;28;20083;-74
2022/08/05 04:53:17;;;;;;;1.33;0.50;;;;;;;11.30;62.80;100893.53;5042356;28;20046;-73
2022/08/05 04:55:44;;;;;;;0.88;0.40;;;;;;;11.29;63.07;100897.34;5069635;28;21260;-74
2022/08/05 04:58:16;;;;;;;1.92;0.47;;;;;;;11.26;62.94;100897.88;5057783;28;20062;-74
2022/08/05 05:00:42;;;;;;;9.25;0.60;;;;;;;11.22;63.54;100899.47;5078825;28;20506;-73
2022/08/05 05:03:09;;;;;;;2.65;0.47;;;;;;;11.20;63.27;100904.38;5056318;28;20132;-73
2022/08/05 05:05:36;;;;;;;2.05;0.73;;;;;;;11.14;63.35;100910.88;5051143;28;20035;-72
2022/08/05 05:08:10;;;;;;;2.08;0.57;;;;;;;11.17;63.73;100910.38;5054727;28;20021;-75
2022/08/05 05:10:41;;;;;;;;;;;;;;;11.16;63.98;100908.72;5077865;28;20044;-74
2022/08/05 05:13:11;;;;;;;2.40;0.40;;;;;;;11.15;63.80;100901.59;5076711;28;19908;-74
2022/08/05 05:15:37;;;;;;;1.30;0.35;;;;;;;11.15;63.71;100909.78;5077182;28;20033;-74
2022/08/05 05:18:03;;;;;;;1.45;0.55;;;;;;;11.13;64.15;100909.25;5040800;28;20024;-72
2022/08/05 05:20:29;;;;;;;0.75;0.40;;;;;;;11.14;64.47;100917.19;5055643;28;20032;-73
2022/08/05 05:22:57;;;;;;;1.63;0.70;;;;;;;11.14;64.14;100922.66;5077695;28;20386;-73
2022/08/05 05:25:22;;;;;;;1.52;0.50;;;;;;;11.13;64.09;100920.19;5067723;28;20520;-74
2022/08/05 05:27:47;;;;;;;1.48;0.57;;;;;;;11.14;64.77;100932.78;5053790;28;20025;-72
2022/08/05 05:30:14;;;;;;;1.38;0.40;;;;;;;11.12;64.08;100935.75;5043674;28;20112;-71
2022/08/05 05:32:39;;;;;;;0.75;0.30;;;;;;;11.12;65.14;100945.91;5058687;28;20040;-75
2022/08/05 05:35:05;;;;;;;1.58;0.65;;;;;;;11.11;64.82;100947.81;5079468;28;20032;-74
2022/08/05 05:37:30;;;;;;;1.15;0.50;;;;;;;11.11;65.08;100938.75;5076151;28;20025;-74
2022/08/05 05:39:56;;;;;;;1.27;0.50;;;;;;;11.14;65.08;100943.72;5056863;28;20107;-74
2022/08/05 05:42:21;;;;;;;1.23;0.38;;;;;;;11.18;64.64;100939.38;5079184;28;20021;-73
2022/08/05 05:44:47;;;;;;;3.67;0.60;;;;;;;11.25;64.83;100944.66;5026119;28;20016;-73
2022/08/05 05:47:12;;;;;;;1.48;0.63;;;;;;;11.34;64.66;100949.41;5058769;28;20027;-73
2022/08/05 05:49:37;;;;;;;1.88;0.52;;;;;;;11.41;64.75;100949.22;5044322;28;20059;-73
2022/08/05 05:52:03;;;;;;;2.40;0.60;;;;;;;11.51;64.50;100953.97;5038347;28;20025;-72
2022/08/05 05:54:29;;;;;;;0.82;0.30;;;;;;;11.70;64.34;100960.72;5042558;28;20043;-73
2022/08/05 05:56:54;;;;;;;0.70;0.30;;;;;;;11.87;63.83;100946.03;5056387;28;20029;-73
2022/08/05 05:59:19;;;;;;;0.63;0.45;;;;;;;12.00;63.38;100967.59;5050586;28;20460;-74
2022/08/05 06:01:45;;;;;;;0.90;0.40;;;;;;;12.20;63.05;100961.41;5051192;28;20070;-74
2022/08/05 06:04:12;;;;;;;3.25;0.68;;;;;;;12.26;62.55;100965.00;5078102;28;20036;-74
2022/08/05 06:06:39;;;;;;;2.08;0.63;;;;;;;12.38;62.73;100962.06;5061553;28;20036;-74
2022/08/05 06:09:05;;;;;;;0.95;0.50;;;;;;;12.68;61.82;100966.88;5060958;28;20492;-72
2022/08/05 06:11:31;;;;;;;0.43;0.35;;;;;;;12.71;62.08;100971.84;5056157;28;20036;-72
2022/08/05 06:13:57;;;;;;;2.00;0.52;;;;;;;12.74;61.74;100976.78;5056831;28;20025;-74
2022/08/05 06:16:23;;;;;;;2.50;0.63;;;;;;;12.74;61.41;100987.78;5042146;28;20039;-74
2022/08/05 06:18:48;;;;;;;2.40;0.50;;;;;;;12.83;61.34;100990.00;5040262;28;20021;-73
2022/08/05 06:21:14;;;;;;;2.28;0.63;;;;;;;12.84;61.86;100991.69;5054921;28;20426;-74
2022/08/05 06:23:39;;;;;;;2.00;0.80;;;;;;;12.83;61.41;100984.53;5040981;28;20086;-73
2022/08/05 06:26:05;;;;;;;2.65;0.73;;;;;;;12.87;61.38;100985.66;5053859;28;20033;-75
2022/08/05 06:28:30;;;;;;;0.47;0.40;;;;;;;13.00;62.16;100990.63;5057635;28;20035;-73
2022/08/05 06:30:55;;;;;;;1.38;0.50;;;;;;;13.22;61.34;100993.19;5073551;28;20040;-74
2022/08/05 06:33:21;;;;;;;3.83;0.60;;;;;;;13.32;61.04;101000.63;5041640;28;20031;-74
2022/08/05 06:35:46;;;;;;;2.13;0.68;;;;;;;13.44;61.15;101005.91;5040341;28;20028;-73
2022/08/05 06:38:12;;;;;;;1.58;0.55;;;;;;;13.58;60.24;101000.72;5034801;28;20455;-73
2022/08/05 06:40:38;;;;;;;0.73;0.30;;;;;;;13.67;60.02;101001.84;5047553;28;20051;-73
2022/08/05 06:43:04;;;;;;;0.82;0.55;;;;;;;13.68;60.52;101006.25;5050538;28;20059;-73
2022/08/05 06:45:30;;;;;;;0.47;0.30;;;;;;;13.73;60.18;101010.91;5059072;28;20032;-73
2022/08/05 06:47:55;;;;;;;3.10;0.70;;;;;;;13.87;59.86;101013.94;5041426;28;20031;-74
2022/08/05 06:50:20;;;;;;;1.48;0.60;;;;;;;14.02;59.73;101011.22;5078068;28;20123;-74
2022/08/05 06:52:46;;;;;;;2.20;0.50;;;;;;;14.25;59.82;101003.50;5054473;28;20040;-72
2022/08/05 06:55:11;;;;;;;4.97;0.50;;;;;;;14.37;59.27;101000.44;5046087;28;20032;-74
2022/08/05 06:57:37;;;;;;;3.47;0.50;;;;;;;14.43;59.18;101010.38;5043295;28;20571;-74
2022/08/05 07:00:03;;;;;;;1.30;0.52;;;;;;;14.48;58.89;101013.94;5040484;28;20513;-73
2022/08/05 07:02:29;;;;;;;6.22;0.70;;;;;;;14.46;58.69;101021.63;5056254;28;20320;-72
2022/08/05 07:04:55;;;;;;;1.83;0.47;;;;;;;14.46;59.41;101018.88;5050947;28;20033;-73
2022/08/05 07:07:20;;;;;;;1.98;0.50;;;;;;;14.44;59.27;101023.84;5077492;28;20540;-73
2022/08/05 07:09:46;;;;;;;1.70;0.60;;;;;;;14.43;58.67;101015.88;5041527;28;20029;-72
2022/08/05 07:16:48;;;;;;;1.73;0.68;;;;;;;14.44;59.29;101017.50;5059034;28;20036;-72
2022/08/05 07:17:40;;;;;;;4.40;0.80;;;;;;;14.62;59.07;101029.91;5050498;28;20039;-73
2022/08/05 07:20:06;;;;;;;2.05;0.60;;;;;;;14.64;58.70;101022.19;5026212;28;20284;-74
2022/08/05 07:22:32;;;;;;;0.50;0.40;;;;;;;14.68;58.65;101017.75;5074563;28;20023;-74
2022/08/05 07:24:59;;;;;;;1.13;0.40;;;;;;;14.86;59.00;101035.59;5074682;28;20028;-75
2022/08/05 07:27:24;;;;;;;2.47;0.60;;;;;;;14.96;58.13;101040.25;5053228;28;20032;-73
2022/08/05 07:29:49;;;;;;;1.20;0.50;;;;;;;14.96;57.69;101034.75;5039516;28;20024;-74
2022/08/05 07:32:15;;;;;;;2.70;0.60;;;;;;;15.08;57.71;101046.25;5034242;28;20021;-74
2022/08/05 07:34:40;;;;;;;4.40;0.60;;;;;;;15.19;57.42;101053.38;5056031;28;20021;-72
2022/08/05 07:37:53;;;;;;;1.35;0.70;;;;;;;15.23;56.71;101047.31;5027026;28;20054;-72
2022/08/05 07:40:20;;;;;;;2.28;0.68;;;;;;;15.34;56.72;101058.00;5053613;28;20051;-73
2022/08/05 07:42:46;;;;;;;2.90;0.60;;;;;;;15.39;56.51;101056.34;5055813;28;20024;-72
2022/08/05 07:45:12;;;;;;;4.38;0.65;;;;;;;15.47;56.17;101062.06;5076174;28;20016;-72
2022/08/05 07:47:38;;;;;;;5.10;0.73;;;;;;;15.53;56.08;101063.69;5056879;28;20067;-73
2022/08/05 07:50:04;;;;;;;6.28;0.75;;;;;;;15.64;55.63;101074.69;5066457;28;20732;-73
2022/08/05 07:52:30;;;;;;;3.28;0.63;;;;;;;15.69;55.70;101075.47;5041542;28;20488;-73
2022/08/05 07:54:56;;;;;;;5.32;0.73;;;;;;;15.80;55.59;101076.28;5040547;28;20028;-70
2022/08/05 07:57:21;;;;;;;0.40;0.38;;;;;;;16.09;54.71;101080.22;5054688;28;20033;-71
2022/08/05 07:59:47;;;;;;;2.80;0.38;;;;;;;16.23;54.84;101073.75;5028614;28;20056;-71
2022/08/05 08:02:12;;;;;;;1.73;0.50;;;;;;;16.58;54.38;101080.06;5052196;28;20033;-70
2022/08/05 08:04:37;;;;;;;3.10;0.60;;;;;;;16.67;52.80;101082.19;5049292;28;20029;-73
2022/08/05 08:07:03;;;;;;;3.67;0.68;;;;;;;16.67;53.25;101074.72;5040520;28;20450;-71
2022/08/05 08:09:28;;;;;;;2.60;0.70;;;;;;;16.80;52.50;101087.03;5051230;28;20049;-71
2022/08/05 08:11:54;;;;;;;2.90;0.50;;;;;;;16.81;52.25;101080.41;5020503;28;20096;-70
2022/08/05 08:14:19;;;;;;;3.58;0.60;;;;;;;16.91;52.53;101076.75;5056012;28;20135;-72
2022/08/05 08:16:45;;;;;;;2.67;0.60;;;;;;;17.16;52.35;101078.38;5045229;28;20092;-72
2022/08/05 08:19:10;;;;;;;1.38;0.50;;;;;;;17.22;52.04;101088.25;5056230;28;20024;-71
2022/08/05 08:21:39;;;;;;;3.42;0.65;;;;;;;17.23;51.06;101089.91;5035136;28;20029;-71
2022/08/05 08:24:04;;;;;;;3.42;0.40;;;;;;;17.49;51.70;101097.88;5050103;28;20357;-71
2022/08/05 08:26:30;;;;;;;1.17;0.40;;;;;;;17.59;50.56;101086.66;5049461;28;20043;-71
2022/08/05 08:28:58;;;;;;;1.63;0.40;;;;;;;17.61;50.10;101094.69;5050834;28;20135;-70
2022/08/05 08:31:23;;;;;;;0.40;0.30;;;;;;;17.60;49.52;101087.50;5052366;28;20033;-71
2022/08/05 08:33:49;;;;;;;3.60;0.68;;;;;;;17.60;49.09;101099.38;5033109;28;20044;-71
2022/08/05 08:36:14;;;;;;;3.30;0.50;;;;;;;17.60;49.24;101096.63;5037138;28;20025;-70
2022/08/05 08:38:40;;;;;;;3.35;0.52;;;;;;;17.80;49.20;101109.34;5046901;28;20116;-73
2022/08/05 08:41:08;;;;;;;1.13;0.30;;;;;;;17.95;49.25;101100.03;5029374;28;20125;-72
2022/08/05 08:43:36;;;;;;;0.82;0.30;;;;;;;18.08;48.36;101104.00;5052146;28;20068;-72
2022/08/05 08:46:03;;;;;;;2.70;0.70;;;;;;;18.21;47.65;101096.88;5047343;28;20025;-71
2022/08/05 08:48:31;;;;;;;5.20;0.50;;;;;;;18.33;47.34;101103.91;5033163;28;20040;-71
2022/08/05 08:50:59;;;;;;;0.95;0.50;;;;;;;18.35;45.64;101101.66;5051219;28;20095;-71
2022/08/05 08:53:26;;;;;;;2.10;0.60;;;;;;;18.33;46.57;101093.63;5052474;28;20045;-71
2022/08/05 08:55:53;;;;;;;2.92;0.47;;;;;;;18.41;45.77;101097.66;5051892;28;20422;-71
2022/08/05 08:58:18;;;;;;;1.83;0.50;;;;;;;18.56;45.75;101104.88;5023796;28;20032;-71
2022/08/05 09:00:45;;;;;;;2.08;0.45;;;;;;;18.61;45.38;101102.03;5034915;28;20060;-71
2022/08/05 09:03:11;;;;;;;1.05;0.40;;;;;;;18.76;45.54;101112.84;5053227;28;20071;-71
2022/08/05 09:05:37;;;;;;;0.30;0.30;;;;;;;18.90;45.60;101107.34;5050275;28;20778;-72
2022/08/05 09:08:02;;;;;;;1.50;0.55;;;;;;;19.02;44.47;101110.44;5049045;28;20052;-71
2022/08/05 09:10:28;;;;;;;5.30;0.82;;;;;;;19.19;44.11;101114.56;5043320;28;20029;-70
2022/08/05 09:12:54;;;;;;;2.33;0.50;;;;;;;19.19;44.34;101125.66;5052727;28;20391;-70
2022/08/05 09:15:20;;;;;;;1.17;0.40;;;;;;;19.31;43.83;101117.63;5044648;28;20129;-71
2022/08/05 09:17:46;;;;;;;4.85;0.70;;;;;;;19.50;43.40;101119.47;5051307;28;20486;-71
2022/08/05 09:20:12;;;;;;;6.18;0.60;;;;;;;19.59;42.88;101119.56;5051051;28;20028;-72
2022/08/05 09:23:04;;;;;;;1.73;0.38;;;;;;;19.83;43.05;101111.84;5051349;28;20028;-73
2022/08/05 09:25:57;;;;;;;;;;;;;;;;;;;;;
2022/08/05 09:28:34;;;;;;;1.33;0.43;;;;;;;19.94;41.20;101101.34;5051700;28;20043;-73
2022/08/05 09:31:04;;;;;;;2.53;0.73;;;;;;;20.29;41.30;101112.72;5048644;28;20053;-70
2022/08/05 09:33:30;;;;;;;0.65;0.50;;;;;;;20.66;41.07;101116.28;5053354;28;20025;-71
2022/08/05 09:36:04;;;;;;;2.42;0.73;;;;;;;20.79;39.48;101111.75;5036163;28;20051;-73
2022/08/05 09:38:30;;;;;;;2.60;0.77;;;;;;;21.19;39.82;101108.19;5054306;28;20531;-71
2022/08/05 09:41:08;;;;;;;1.50;0.50;;;;;;;22.02;38.72;101099.06;5049353;28;20021;-71
2022/08/05 09:43:36;;;;;;;0.70;0.30;;;;;;;23.00;37.11;101113.31;5051688;28;20036;-70
2022/08/05 09:46:13;;;;;;;;;;;;;;;;;;;;;
2022/08/05 09:48:53;;;;;;;1.48;0.20;;;;;;;25.40;33.70;101127.47;5054236;28;20035;-72
2022/08/05 09:51:42;;;;;;;0.75;0.45;;;;;;;28.06;30.81;101127.44;5048883;28;20469;-71
2022/08/05 09:54:34;;;;;;;3.88;0.80;;;;;;;29.29;25.97;101131.38;5056891;28;20045;-71
2022/08/05 09:57:00;;;;;;;1.33;0.60;;;;;;;30.00;27.12;101128.00;5030481;28;20033;-71
2022/08/05 09:59:28;;;;;;;3.55;0.82;;;;;;;31.43;23.56;101130.69;5034969;28;20045;-70
2022/08/05 10:01:57;;;;;;;1.58;0.60;;;;;;;32.02;23.55;101139.16;5067260;28;20040;-71
2022/08/05 10:04:34;;;;;;;1.17;0.45;;;;;;;32.23;23.56;101143.31;5053501;28;20028;-72
2022/08/05 10:07:01;;;;;;;3.65;1.08;;;;;;;32.72;22.69;101138.19;5072528;28;20068;-72
2022/08/05 11:07:10;;;;;;;1.23;0.50;;;;;;;28.86;21.99;101136.25;4805459;22;20442;-71
2022/08/05 11:09:48;;;;;;;6.75;0.57;;;;;;;28.12;23.62;101138.00;5012884;28;20061;-70
2022/08/05 11:12:52;;;;;;;;;;;;;;;;;;;;;
2022/08/05 11:15:46;;;;;;;2.50;0.50;;;;;;;29.35;24.37;101148.75;5033664;28;20093;-70
2022/08/05 11:18:41;;;;;;;1.55;0.50;;;;;;;30.06;23.03;101151.84;4991496;28;20375;-70
2022/08/05 11:22:12;;;;;;;;;;;;;;;;;;;;;
2022/08/05 11:25:16;;;;;;;2.20;0.60;;;;;;;29.41;20.81;101156.53;5031965;28;20506;-73
2022/08/05 11:27:55;;;;;;;6.05;2.20;;;;;;;29.41;20.93;101148.06;4927193;29;20131;-71
2022/08/05 11:30:32;;;;;;;4.13;0.80;;;;;;;30.04;20.47;101159.88;4930966;29;20056;-72
2022/08/05 11:33:37;;;;;;;3.40;1.35;;;;;;;30.88;20.43;101167.31;5018984;28;20037;-71
2022/08/05 11:36:19;;;;;;;1.35;0.50;;;;;;;32.14;19.45;101148.50;5015883;28;20022;-72
2022/08/05 11:38:51;;;;;;;0.63;0.30;;;;;;;34.22;18.53;101161.94;5012880;28;20033;-71
2022/08/05 11:41:19;;;;;;;1.80;0.38;;;;;;;34.83;17.50;101177.91;5016691;28;20036;-70
2022/08/05 11:44:01;;;;;;;5.03;0.50;;;;;;;33.49;17.67;101165.38;5036771;28;20089;-72
2022/08/05 11:46:28;;;;;;;6.38;0.50;;;;;;;32.26;17.97;101170.00;5035555;28;20033;-72
2022/08/05 11:48:55;;;;;;;0.82;0.38;;;;;;;31.45;19.44;101173.50;5019203;28;20033;-71
2022/08/05 11:51:21;;;;;;;1.13;0.40;;;;;;;30.95;19.67;101173.03;5016533;28;20038;-70
2022/08/05 11:53:47;;;;;;;4.43;1.02;;;;;;;30.44;19.61;101172.50;5019715;28;20041;-70
2022/08/05 11:56:13;;;;;;;2.45;0.60;;;;;;;29.95;20.32;101179.09;5019412;28;20513;-71
2022/08/05 11:58:40;;;;;;;2.35;0.73;;;;;;;30.98;19.81;101173.06;4999161;28;20026;-71
2022/08/05 12:01:09;;;;;;;1.67;0.50;;;;;;;35.82;15.53;101173.81;5035316;28;20029;-72
2022/08/05 12:03:41;;;;;;;2.85;0.60;;;;;;;39.00;12.89;101180.63;5034160;28;20025;-71
2022/08/05 12:06:08;;;;;;;1.40;0.47;;;;;;;41.42;11.19;101183.81;5013403;28;20412;-71
2022/08/05 12:08:48;;;;;;;2.33;0.30;;;;;;;41.26;11.54;101196.22;5026501;28;20369;-71
2022/08/05 12:11:26;;;;;;;0.68;0.30;;;;;;;37.08;14.32;101177.06;5037890;28;20041;-70
2022/08/05 12:14:00;;;;;;;2.08;0.43;;;;;;;34.42;16.24;101181.38;5055548;28;20111;-72
2022/08/05 12:16:28;;;;;;;1.17;0.45;;;;;;;32.62;17.55;101181.44;5053751;28;20029;-69
2022/08/05 12:18:54;;;;;;;1.10;0.45;;;;;;;31.32;18.73;101173.00;5045080;28;20024;-70
2022/08/05 12:21:26;;;;;;;1.33;0.35;;;;;;;30.56;19.57;101179.91;5047141;28;20192;-71
2022/08/05 12:24:06;;;;;;;0.40;0.40;;;;;;;30.00;20.25;101175.94;5051276;28;20064;-71
2022/08/05 12:26:40;;;;;;;0.55;0.25;;;;;;;29.39;20.54;101175.78;5043715;28;20070;-70
2022/08/05 12:29:14;;;;;;;1.50;0.68;;;;;;;28.93;21.13;101172.13;5041696;28;20095;-73
2022/08/05 12:31:44;;;;;;;1.08;0.30;;;;;;;34.03;18.75;101176.63;5041579;28;20040;-70
2022/08/05 12:34:10;;;;;;;0.82;0.30;;;;;;;40.61;13.73;101191.75;5055917;28;20035;-70
2022/08/05 12:36:36;;;;;;;1.55;0.40;;;;;;;40.00;12.42;101199.28;5054107;28;20029;-71
2022/08/05 12:39:04;;;;;;;0.50;0.20;;;;;;;36.27;14.88;101187.94;5045778;28;20025;-71
2022/08/05 12:41:35;;;;;;;1.45;0.40;;;;;;;33.48;16.26;101198.56;5065065;28;20035;-72